Time;durP1;ratioP1;P1;durP2;ratioP2;P2;SDS_P1;SDS_P2;PMS_P1;PMS_P2;Temp;Humidity;BMP_temperature;BMP_pressure;BME280_temperature;BME280_humidity;BME280_pressure;Samples;Min_cycle;Max_cycle;Signal;HPM_P1;HPM_P2
2023/01/12 00:02:18;;;;;;;1.87;1.50;;;10.60;44.90;;;;;;10520845;28;20235;-68
2023/01/12 00:07:22;;;;;;;1.90;1.30;;;10.60;45.00;;;;;;10520059;28;20231;-68
2023/01/12 00:12:25;;;;;;;1.90;1.40;;;10.50;44.80;;;;;;10520976;28;20235;-68
2023/01/12 00:17:30;;;;;;;2.67;1.43;;;10.50;44.70;;;;;;10521491;28;20239;-68
2023/01/12 00:22:33;;;;;;;2.00;1.20;;;10.50;44.60;;;;;;10521805;28;20246;-68
2023/01/12 00:27:36;;;;;;;2.60;1.40;;;10.50;44.50;;;;;;10523016;28;20253;-68
2023/01/12 00:32:41;;;;;;;3.17;1.20;;;10.40;44.40;;;;;;10520684;28;20234;-68
2023/01/12 00:37:44;;;;;;;2.93;1.10;;;10.40;45.10;;;;;;10524160;28;20230;-68
2023/01/12 00:48:11;;;;;;;2.80;1.10;;;10.30;43.90;;;;;;10516532;28;20707;-68
2023/01/12 00:53:15;;;;;;;1.90;1.00;;;10.30;43.70;;;;;;10522292;28;20657;-68
2023/01/12 00:58:18;;;;;;;2.17;0.90;;;10.30;43.70;;;;;;10521733;28;20244;-69
2023/01/12 01:03:23;;;;;;;3.23;1.10;;;10.20;43.60;;;;;;10521524;28;20710;-68
2023/01/12 01:08:26;;;;;;;3.33;1.20;;;10.20;43.50;;;;;;10526665;28;20231;-68
2023/01/12 01:13:29;;;;;;;2.50;1.27;;;10.10;43.40;;;;;;10524294;28;20739;-68
2023/01/12 01:18:35;;;;;;;2.83;0.90;;;10.10;43.40;;;;;;10530129;28;20241;-68
2023/01/12 01:23:39;;;;;;;3.43;1.33;;;10.10;43.40;;;;;;10525908;28;20228;-68
2023/01/12 01:28:43;;;;;;;1.90;0.97;;;10.00;43.40;;;;;;10529566;28;20227;-68
2023/01/12 01:33:48;;;;;;;2.93;1.20;;;9.80;45.20;;;;;;10529453;28;20236;-67
2023/01/12 01:38:52;;;;;;;1.10;0.70;;;9.80;44.70;;;;;;10527573;28;20242;-68
2023/01/12 01:43:58;;;;;;;1.97;1.00;;;9.70;44.70;;;;;;10531212;28;20223;-68
2023/01/12 01:49:14;;;;;;;2.67;1.00;;;9.70;45.00;;;;;;10529493;28;20703;-68
2023/01/12 01:54:17;;;;;;;2.23;1.10;;;9.60;45.00;;;;;;10528794;28;20644;-68
2023/01/12 01:59:23;;;;;;;1.83;1.10;;;9.60;45.00;;;;;;10528295;28;20228;-68
2023/01/12 02:04:28;;;;;;;3.50;1.17;;;9.60;45.00;;;;;;10527712;28;20223;-68
2023/01/12 02:09:31;;;;;;;2.40;1.23;;;9.60;45.00;;;;;;10528621;28;20235;-68
2023/01/12 02:20:38;;;;;;;2.03;1.17;;;9.60;45.10;;;;;;10527681;28;20231;-68
2023/01/12 02:26:06;;;;;;;2.40;1.30;;;9.60;45.20;;;;;;10528210;28;20728;-68
2023/01/12 02:31:40;;;;;;;1.60;1.10;;;9.50;45.10;;;;;;10527525;28;20243;-71
2023/01/12 02:36:51;;;;;;;2.20;1.20;;;9.50;45.20;;;;;;10541750;28;20230;-72
2023/01/12 02:47:44;;;;;;;2.40;1.57;;;9.50;45.00;;;;;;10538464;28;20230;-72
2023/01/12 02:52:54;;;;;;;3.20;1.30;;;9.40;45.00;;;;;;10529256;28;21193;-72
2023/01/12 02:57:58;;;;;;;2.00;1.33;;;9.40;45.00;;;;;;10537803;28;20224;-72
2023/01/12 03:03:02;;;;;;;2.13;0.97;;;9.40;45.00;;;;;;10539527;28;20764;-72
2023/01/12 03:08:06;;;;;;;1.97;0.93;;;9.30;45.00;;;;;;10542058;28;20218;-71
2023/01/12 03:13:13;;;;;;;3.23;1.20;;;9.20;45.20;;;;;;10530409;28;20699;-72
2023/01/12 03:18:24;;;;;;;3.70;1.20;;;9.20;45.30;;;;;;10535699;28;20242;-72
2023/01/12 03:23:34;;;;;;;2.43;1.20;;;9.20;45.40;;;;;;10532709;28;20238;-72
2023/01/12 03:28:42;;;;;;;3.33;1.30;;;9.30;45.40;;;;;;10535977;28;20235;-72
2023/01/12 03:33:46;;;;;;;3.73;1.20;;;9.30;45.30;;;;;;10535394;28;20265;-72
2023/01/12 03:39:11;;;;;;;3.60;1.40;;;9.30;45.40;;;;;;10535589;28;20239;-72
2023/01/12 03:44:19;;;;;;;2.70;1.70;;;9.30;45.60;;;;;;10529367;28;20235;-71
2023/01/12 03:49:29;;;;;;;5.63;1.57;;;9.30;45.40;;;;;;10531508;28;20292;-72
2023/01/12 03:54:34;;;;;;;3.47;1.23;;;9.30;45.50;;;;;;10529012;28;20239;-72
2023/01/12 03:59:37;;;;;;;1.57;1.20;;;9.20;45.20;;;;;;10524965;28;20235;-72
2023/01/12 04:04:42;;;;;;;3.23;1.30;;;9.20;45.20;;;;;;10531753;28;20231;-72
2023/01/12 04:09:45;;;;;;;2.87;1.20;;;9.20;45.20;;;;;;10547461;28;20233;-72
2023/01/12 04:14:48;;;;;;;4.27;1.50;;;9.20;45.20;;;;;;10539515;28;20253;-72
2023/01/12 04:19:53;;;;;;;3.13;1.20;;;9.20;45.30;;;;;;10536004;28;20315;-72
2023/01/12 04:24:56;;;;;;;4.97;1.30;;;9.20;45.20;;;;;;10530377;28;20223;-72
2023/01/12 04:29:59;;;;;;;3.73;1.33;;;9.20;45.20;;;;;;10533121;28;20223;-72
2023/01/12 04:35:05;;;;;;;3.47;1.27;;;9.20;45.10;;;;;;10539990;28;20229;-71
2023/01/12 04:40:10;;;;;;;5.50;1.30;;;9.30;45.10;;;;;;10523988;28;20308;-71
2023/01/12 04:45:13;;;;;;;6.03;1.43;;;9.30;45.00;;;;;;10524610;28;20243;-71
2023/01/12 04:50:17;;;;;;;4.27;1.33;;;9.30;45.00;;;;;;10519863;28;20715;-71
2023/01/12 04:55:21;;;;;;;3.57;1.30;;;9.20;44.80;;;;;;10522465;28;20236;-72
2023/01/12 05:00:24;;;;;;;3.43;1.10;;;9.20;44.80;;;;;;10532868;28;20246;-72
2023/01/12 05:05:30;;;;;;;4.30;1.23;;;9.20;44.80;;;;;;10525875;28;20235;-71
2023/01/12 05:10:33;;;;;;;2.03;1.10;;;9.20;45.50;;;;;;10516973;28;20229;-71
2023/01/12 05:15:36;;;;;;;3.43;1.40;;;9.20;44.80;;;;;;10531644;28;20235;-72
2023/01/12 05:20:41;;;;;;;2.60;1.10;;;9.20;44.70;;;;;;10521234;28;20227;-72
2023/01/12 05:25:44;;;;;;;3.17;1.20;;;9.20;44.70;;;;;;10527758;28;20223;-72
2023/01/12 05:30:47;;;;;;;5.40;1.60;;;9.30;44.60;;;;;;10523047;28;20235;-72
2023/01/12 05:35:51;;;;;;;5.87;1.57;;;9.30;44.60;;;;;;10527498;28;20714;-72
2023/01/12 05:40:54;;;;;;;5.00;2.40;;;9.20;44.50;;;;;;10525490;28;20227;-71
2023/01/12 05:46:02;;;;;;;9.17;6.20;;;9.20;44.50;;;;;;10534562;28;20616;-72
2023/01/12 05:51:08;;;;;;;4.37;2.87;;;9.20;44.30;;;;;;10533344;28;20314;-71
2023/01/12 05:56:17;;;;;;;11.93;5.10;;;9.20;44.30;;;;;;10543695;28;20314;-72
2023/01/12 06:01:20;;;;;;;4.07;2.20;;;9.20;44.20;;;;;;10529272;28;20231;-72
2023/01/12 06:06:29;;;;;;;6.30;2.80;;;9.20;44.30;;;;;;10535724;28;20238;-72
2023/01/12 06:16:52;;;;;;;4.17;1.60;;;9.10;44.20;;;;;;10530488;28;20254;-72
2023/01/12 06:21:58;;;;;;;5.47;1.50;;;9.10;44.30;;;;;;10532069;28;20718;-71
2023/01/12 06:27:01;;;;;;;6.40;1.70;;;9.20;44.50;;;;;;10537957;28;20223;-72
2023/01/12 06:32:05;;;;;;;2.13;1.10;;;9.20;44.40;;;;;;10546811;28;20230;-72
2023/01/12 06:37:11;;;;;;;4.27;1.20;;;9.20;44.20;;;;;;10534591;28;20298;-72
2023/01/12 06:42:30;;;;;;;2.87;1.17;;;9.20;44.10;;;;;;10531007;28;20246;-72
2023/01/12 06:47:33;;;;;;;4.03;1.63;;;9.30;44.00;;;;;;10533285;28;20227;-72
2023/01/12 06:52:38;;;;;;;3.37;1.30;;;9.30;44.00;;;;;;10538304;28;20755;-72
2023/01/12 06:57:41;;;;;;;5.07;2.73;;;9.30;43.80;;;;;;10531234;28;20308;-72
2023/01/12 07:02:44;;;;;;;5.13;2.80;;;9.30;43.90;;;;;;10525165;28;20764;-72
2023/01/12 07:07:49;;;;;;;3.30;1.70;;;9.30;43.90;;;;;;10541401;28;20631;-72
2023/01/12 07:12:52;;;;;;;3.47;1.40;;;9.30;43.60;;;;;;10535529;28;20231;-72
2023/01/12 07:17:56;;;;;;;3.20;1.20;;;9.30;43.70;;;;;;10536497;28;20223;-72
2023/01/12 07:23:00;;;;;;;1.83;1.20;;;9.30;43.60;;;;;;10526841;28;20288;-72
2023/01/12 07:28:04;;;;;;;2.60;1.70;;;9.30;43.50;;;;;;10531388;28;20951;-71
2023/01/12 07:33:08;;;;;;;4.33;1.60;;;9.30;43.60;;;;;;10539546;28;20242;-71
2023/01/12 07:38:12;;;;;;;3.03;1.23;;;9.30;43.40;;;;;;10538474;28;20243;-71
2023/01/12 07:43:17;;;;;;;5.47;1.43;;;9.30;43.30;;;;;;10524189;28;20238;-68
2023/01/12 07:48:21;;;;;;;4.97;1.60;;;9.30;43.30;;;;;;10525524;28;20243;-68
2023/01/12 07:53:26;;;;;;;4.17;1.43;;;9.30;43.30;;;;;;10516381;28;20236;-68
2023/01/12 07:58:29;;;;;;;5.47;1.40;;;9.30;43.20;;;;;;10517365;28;20235;-68
2023/01/12 08:03:32;;;;;;;3.33;1.30;;;9.30;43.40;;;;;;10513048;28;20235;-68
2023/01/12 08:08:37;;;;;;;2.23;1.17;;;9.40;43.40;;;;;;10513654;28;20251;-68
2023/01/12 08:13:40;;;;;;;3.23;1.10;;;9.40;43.00;;;;;;10512106;28;20228;-68
2023/01/12 08:18:48;;;;;;;3.50;1.10;;;9.40;43.10;;;;;;10516466;28;20227;-68
2023/01/12 08:23:57;;;;;;;4.53;1.27;;;9.50;43.10;;;;;;10519716;28;20240;-68
2023/01/12 08:29:04;;;;;;;2.77;1.13;;;9.50;42.90;;;;;;10520802;28;20232;-68
2023/01/12 08:34:09;;;;;;;4.57;1.20;;;9.50;42.80;;;;;;10519028;28;20219;-68
2023/01/12 08:39:14;;;;;;;2.00;1.10;;;9.60;43.10;;;;;;10522734;28;20227;-68
2023/01/12 08:44:17;;;;;;;2.90;1.30;;;9.50;42.80;;;;;;10519332;28;20235;-68
2023/01/12 08:49:21;;;;;;;1.50;1.13;;;9.70;43.10;;;;;;10519568;28;20285;-68
2023/01/12 08:54:27;;;;;;;4.07;1.40;;;9.80;43.10;;;;;;10515039;28;20251;-68
2023/01/12 08:59:30;;;;;;;3.57;1.20;;;9.80;42.90;;;;;;10518462;28;20243;-68
2023/01/12 09:04:34;;;;;;;4.27;1.30;;;9.90;43.10;;;;;;10517618;28;20270;-68
2023/01/12 09:09:38;;;;;;;5.50;1.47;;;10.00;42.30;;;;;;10515644;28;20235;-68
2023/01/12 09:14:41;;;;;;;2.33;1.23;;;10.10;42.00;;;;;;10515200;28;20231;-68
2023/01/12 09:19:48;;;;;;;2.97;1.20;;;10.20;42.20;;;;;;10519847;28;20696;-69
2023/01/12 09:24:53;;;;;;;4.40;1.50;;;10.30;42.00;;;;;;10516684;28;20231;-67
2023/01/12 09:29:56;;;;;;;3.03;1.40;;;10.40;41.90;;;;;;10529337;28;20234;-72
2023/01/12 09:34:59;;;;;;;4.33;1.30;;;10.50;41.80;;;;;;10534887;28;20231;-72
2023/01/12 09:40:04;;;;;;;3.20;1.23;;;10.50;41.60;;;;;;10537199;28;20244;-71
2023/01/12 09:50:45;;;;;;;2.43;1.10;;;10.80;40.70;;;;;;10502450;28;20731;-69
2023/01/12 09:55:56;;;;;;;4.53;1.30;;;10.80;40.60;;;;;;10532701;28;20887;-69
2023/01/12 10:01:07;;;;;;;6.57;1.33;;;10.90;40.70;;;;;;10529722;28;20286;-69
2023/01/12 10:06:16;;;;;;;3.93;1.07;;;10.90;40.70;;;;;;10527012;28;20251;-69
2023/01/12 10:11:25;;;;;;;3.77;1.37;;;11.00;40.80;;;;;;10524663;28;20232;-69
2023/01/12 10:16:40;;;;;;;1.87;1.10;;;11.10;40.90;;;;;;10528829;28;20231;-69
2023/01/12 10:21:44;;;;;;;3.27;1.37;;;11.20;41.00;;;;;;10523233;28;20216;-69
2023/01/12 10:26:55;;;;;;;4.07;2.00;;;11.30;41.10;;;;;;10524565;28;20232;-69
2023/01/12 10:31:59;;;;;;;3.53;1.47;;;11.40;40.30;;;;;;10527598;28;20680;-69
2023/01/12 10:37:09;;;;;;;3.63;1.50;;;11.50;41.20;;;;;;10528296;28;20584;-69
2023/01/12 10:47:44;;;;;;;3.20;1.50;;;11.70;39.20;;;;;;10526667;28;20232;-69
2023/01/12 10:52:49;;;;;;;3.17;1.53;;;11.70;40.00;;;;;;10525229;28;20285;-69
2023/01/12 10:57:54;;;;;;;3.90;1.50;;;11.80;40.20;;;;;;10518721;28;20803;-69
2023/01/12 11:02:57;;;;;;;3.63;1.40;;;11.80;40.20;;;;;;10515566;28;20239;-69
2023/01/12 11:08:01;;;;;;;3.80;1.30;;;11.90;40.10;;;;;;10510969;28;20227;-69
2023/01/12 11:13:07;;;;;;;6.33;4.60;;;12.00;40.00;;;;;;10509540;28;20261;-69
2023/01/12 11:18:31;;;;;;;3.07;1.67;;;12.00;39.70;;;;;;10512412;28;20926;-71
2023/01/12 11:23:39;;;;;;;2.33;1.27;;;12.10;38.70;;;;;;10517493;28;20224;-69
2023/01/12 11:28:47;;;;;;;3.07;1.27;;;12.10;39.00;;;;;;10520354;28;20285;-69
2023/01/12 11:33:55;;;;;;;3.83;1.13;;;12.10;39.00;;;;;;10515064;28;20224;-69
2023/01/12 11:39:03;;;;;;;3.37;1.10;;;12.10;39.00;;;;;;10523074;28;20277;-68
2023/01/12 11:44:13;;;;;;;1.93;1.03;;;12.20;38.90;;;;;;10520883;28;20718;-68
2023/01/12 11:49:22;;;;;;;2.97;1.30;;;12.20;38.30;;;;;;10520543;28;20236;-68
2023/01/12 11:54:28;;;;;;;2.07;1.30;;;12.20;38.90;;;;;;10520026;28;20231;-68
2023/01/12 11:59:42;;;;;;;3.07;1.27;;;12.20;38.70;;;;;;10517885;28;20234;-68
2023/01/12 12:04:59;;;;;;;2.93;1.27;;;12.20;37.30;;;;;;10521745;28;20612;-68
2023/01/12 12:10:20;;;;;;;3.43;1.10;;;12.20;37.80;;;;;;10520256;28;20228;-69
2023/01/12 12:15:32;;;;;;;3.47;1.40;;;12.20;38.20;;;;;;10512904;28;20254;-68
2023/01/12 12:20:43;;;;;;;2.30;1.10;;;12.30;38.10;;;;;;10512294;28;20313;-68
2023/01/12 12:25:56;;;;;;;2.60;1.00;;;12.30;38.50;;;;;;10520541;28;20721;-68
2023/01/12 12:31:12;;;;;;;3.03;1.20;;;12.30;38.00;;;;;;10516746;28;20307;-68
2023/01/12 12:36:22;;;;;;;3.00;1.20;;;12.40;37.60;;;;;;10518823;28;20234;-68
2023/01/12 12:47:07;;;;;;;1.67;1.10;;;12.40;38.00;;;;;;10519075;28;20777;-68
2023/01/12 12:52:12;;;;;;;2.47;1.23;;;12.50;38.30;;;;;;10520353;28;20305;-68
2023/01/12 12:57:16;;;;;;;2.47;1.37;;;12.50;39.20;;;;;;10518899;28;20243;-68
2023/01/12 13:02:37;;;;;;;1.77;1.10;;;12.60;38.70;;;;;;10523262;28;20354;-68
2023/01/12 13:07:50;;;;;;;3.17;1.17;;;12.60;37.70;;;;;;10527436;28;20239;-68
2023/01/12 13:13:04;;;;;;;1.97;1.00;;;12.50;37.30;;;;;;10528194;28;20301;-68
2023/01/12 13:18:40;;;;;;;3.00;1.80;;;12.50;37.60;;;;;;10530287;28;20231;-68
2023/01/12 13:23:49;;;;;;;2.30;1.50;;;12.50;38.30;;;;;;10525267;28;20238;-68
2023/01/12 13:29:26;;;;;;;2.27;1.20;;;12.50;38.00;;;;;;10526777;28;20316;-69
2023/01/12 13:34:44;;;;;;;2.90;1.00;;;12.40;37.00;;;;;;10530552;28;20698;-68
2023/01/12 13:39:55;;;;;;;3.17;1.40;;;12.40;37.30;;;;;;10525871;28;20255;-69
2023/01/12 13:44:59;;;;;;;2.40;1.50;;;12.40;37.60;;;;;;10528356;28;20230;-68
2023/01/12 13:50:04;;;;;;;2.93;1.40;;;12.40;38.20;;;;;;10527010;28;20592;-69
2023/01/12 13:55:19;;;;;;;2.97;1.10;;;12.40;37.60;;;;;;10527480;28;20234;-69
2023/01/12 14:00:23;;;;;;;1.63;1.00;;;12.40;37.10;;;;;;10527705;28;20248;-68
2023/01/12 14:05:43;;;;;;;1.90;1.00;;;12.50;38.10;;;;;;10525869;28;20235;-68
2023/01/12 14:10:53;;;;;;;3.60;1.13;;;12.40;37.30;;;;;;10526312;28;20238;-69
2023/01/12 14:21:26;;;;;;;1.73;0.90;;;12.40;37.60;;;;;;10502158;22;21430;-75
2023/01/12 14:26:30;;;;;;;1.37;0.90;;;12.40;37.10;;;;;;10437116;28;20225;-76
2023/01/12 14:31:38;;;;;;;2.03;1.10;;;12.40;38.00;;;;;;10439699;28;20217;-75
2023/01/12 14:36:45;;;;;;;2.43;1.10;;;12.40;37.50;;;;;;10432831;28;20229;-75
2023/01/12 14:47:23;;;;;;;2.27;1.40;;;12.40;37.60;;;;;;10436789;28;20220;-75
2023/01/12 14:52:31;;;;;;;2.10;1.10;;;12.50;36.90;;;;;;10441024;28;20814;-76
2023/01/12 14:57:35;;;;;;;1.30;0.87;;;12.50;37.00;;;;;;10433983;28;20235;-76
2023/01/12 15:02:40;;;;;;;2.07;1.30;;;12.50;37.60;;;;;;10441396;28;20232;-75
2023/01/12 15:07:56;;;;;;;2.53;1.33;;;12.50;37.40;;;;;;10432403;28;20237;-75
2023/01/12 15:13:21;;;;;;;1.30;1.10;;;12.50;36.50;;;;;;10431487;28;20277;-75
2023/01/12 15:29:09;;;;;;;2.50;1.50;;;12.40;37.30;;;;;;10428604;28;20232;-74
2023/01/12 15:34:12;;;;;;;1.30;1.20;;;12.40;37.60;;;;;;10426142;28;20233;-76
2023/01/12 15:39:16;;;;;;;2.47;1.20;;;12.50;37.70;;;;;;10431873;28;20240;-76
2023/01/12 15:44:21;;;;;;;1.40;1.10;;;12.50;37.40;;;;;;10433299;28;20716;-75
2023/01/12 15:49:24;;;;;;;2.63;1.40;;;12.50;37.20;;;;;;10431398;28;20232;-75
2023/01/12 15:54:29;;;;;;;1.33;0.90;;;12.50;37.40;;;;;;10434175;28;20252;-74
2023/01/12 15:59:32;;;;;;;2.33;1.17;;;12.50;37.10;;;;;;10434324;28;20582;-74
2023/01/12 16:04:35;;;;;;;3.83;1.20;;;12.40;37.40;;;;;;10434602;28;20225;-74
2023/01/12 16:09:46;;;;;;;1.40;1.00;;;12.40;37.40;;;;;;10430717;28;20287;-75
2023/01/12 16:14:50;;;;;;;1.47;1.27;;;12.40;37.40;;;;;;10433018;28;20324;-75
2023/01/12 16:19:53;;;;;;;3.10;1.10;;;12.30;37.50;;;;;;10432696;28;20276;-75
2023/01/12 16:24:57;;;;;;;1.40;0.90;;;12.30;37.60;;;;;;10435113;28;20225;-74
2023/01/12 16:30:01;;;;;;;1.20;1.10;;;12.20;37.20;;;;;;10427865;28;20716;-74
2023/01/12 16:35:04;;;;;;;1.63;1.10;;;12.20;37.40;;;;;;10429187;28;20985;-74
2023/01/12 16:40:11;;;;;;;1.50;1.00;;;12.20;37.50;;;;;;10419182;28;20237;-74
2023/01/12 16:45:14;;;;;;;1.10;1.00;;;12.10;37.20;;;;;;10432186;28;20236;-75
2023/01/12 16:50:17;;;;;;;2.30;1.10;;;12.20;37.60;;;;;;10435114;28;20237;-74
2023/01/12 16:55:22;;;;;;;1.30;1.10;;;12.20;37.60;;;;;;10430262;28;20241;-74
2023/01/12 17:00:26;;;;;;;2.37;1.40;;;12.20;37.50;;;;;;10427349;28;20232;-74
2023/01/12 17:05:30;;;;;;;1.53;1.20;;;12.10;37.70;;;;;;10432637;28;20233;-74
2023/01/12 17:10:35;;;;;;;1.97;1.20;;;12.20;37.60;;;;;;10421892;28;20233;-73
2023/01/12 17:15:39;;;;;;;1.40;1.20;;;12.10;37.30;;;;;;10418607;28;20221;-73
2023/01/12 17:20:42;;;;;;;1.40;1.13;;;12.20;37.40;;;;;;10420467;28;20606;-73
2023/01/12 17:25:47;;;;;;;2.13;1.20;;;12.20;37.60;;;;;;10426593;28;20728;-73
2023/01/12 17:30:50;;;;;;;1.60;1.20;;;12.20;37.30;;;;;;10421994;28;20231;-73
2023/01/12 17:35:53;;;;;;;2.13;1.10;;;12.20;37.50;;;;;;10430787;28;20554;-74
2023/01/12 17:40:57;;;;;;;2.60;1.37;;;12.20;37.50;;;;;;10424799;28;20217;-73
2023/01/12 17:46:02;;;;;;;2.77;1.17;;;12.20;37.30;;;;;;10430298;28;20232;-73
2023/01/12 17:51:10;;;;;;;1.33;1.13;;;12.20;37.50;;;;;;10427884;28;20328;-73
2023/01/12 17:56:15;;;;;;;2.50;1.57;;;12.20;37.40;;;;;;10431332;28;20229;-73
2023/01/12 18:01:18;;;;;;;2.57;1.50;;;12.20;37.30;;;;;;10426978;28;20232;-74
2023/01/12 18:06:22;;;;;;;1.57;1.00;;;12.20;37.50;;;;;;10431608;28;20241;-73
2023/01/12 18:11:30;;;;;;;3.37;1.33;;;12.20;37.50;;;;;;10430660;28;20233;-74
2023/01/12 18:16:34;;;;;;;2.80;1.40;;;12.10;37.70;;;;;;10430790;28;20234;-73
2023/01/12 18:21:37;;;;;;;2.27;1.40;;;12.10;37.40;;;;;;10435053;28;20233;-74
2023/01/12 18:26:42;;;;;;;1.80;1.57;;;12.10;37.50;;;;;;10432740;28;20251;-73
2023/01/12 18:31:46;;;;;;;3.83;1.40;;;12.10;37.40;;;;;;10435619;28;20233;-74
2023/01/12 18:36:49;;;;;;;2.03;1.40;;;12.00;37.60;;;;;;10438077;28;20750;-74
2023/01/12 18:58:03;;;;;;;1.20;0.90;;;12.00;37.70;;;;;;10412008;28;20233;-74
2023/01/12 19:03:06;;;;;;;2.40;1.37;;;12.00;37.60;;;;;;10434435;28;21185;-73
2023/01/12 19:18:48;;;;;;;1.97;1.50;;;12.00;37.60;;;;;;10435293;28;20236;-73
2023/01/12 19:29:13;;;;;;;3.00;1.40;;;11.90;37.60;;;;;;10426482;28;20229;-75
2023/01/12 19:34:17;;;;;;;1.43;1.30;;;11.90;37.50;;;;;;10426103;28;20237;-75
2023/01/12 19:39:32;;;;;;;2.90;1.90;;;11.80;37.40;;;;;;10421794;28;20709;-76
2023/01/12 19:44:37;;;;;;;2.07;1.47;;;11.80;37.50;;;;;;10430092;28;20232;-74
2023/01/12 19:49:40;;;;;;;2.30;1.17;;;11.70;37.40;;;;;;10430058;28;20713;-74
2023/01/12 19:54:43;;;;;;;2.37;1.30;;;11.70;37.50;;;;;;10438367;28;20230;-74
2023/01/12 19:59:48;;;;;;;1.20;1.10;;;11.70;37.60;;;;;;10423833;28;20229;-75
2023/01/12 20:04:51;;;;;;;1.67;1.20;;;11.70;37.60;;;;;;10427233;28;20244;-75
2023/01/12 20:09:54;;;;;;;1.47;1.20;;;11.60;37.60;;;;;;10416590;28;20221;-76
2023/01/12 20:14:59;;;;;;;1.10;1.00;;;11.60;37.60;;;;;;10422715;28;20225;-77
2023/01/12 20:20:02;;;;;;;1.43;1.20;;;11.60;37.60;;;;;;10426060;28;20708;-77
2023/01/12 20:25:07;;;;;;;1.70;1.20;;;11.60;37.80;;;;;;10426710;28;20244;-77
2023/01/12 20:30:13;;;;;;;2.30;0.93;;;11.60;37.70;;;;;;10431867;28;20307;-77
2023/01/12 20:35:22;;;;;;;1.33;1.10;;;11.60;37.50;;;;;;10423432;28;20672;-75
2023/01/12 20:40:25;;;;;;;2.10;1.10;;;11.60;37.50;;;;;;10429283;28;20588;-75
2023/01/12 20:45:30;;;;;;;1.40;1.00;;;11.60;37.50;;;;;;10425224;28;20233;-75
2023/01/12 20:50:33;;;;;;;1.37;1.00;;;11.60;37.60;;;;;;10434450;28;20704;-75
2023/01/12 20:55:41;;;;;;;1.43;1.03;;;11.60;37.60;;;;;;10432414;28;20232;-77
2023/01/12 21:00:47;;;;;;;3.63;1.00;;;11.50;37.30;;;;;;10431635;28;20320;-76
2023/01/12 21:05:51;;;;;;;1.30;1.20;;;11.50;37.50;;;;;;10436806;28;20245;-77
2023/01/12 21:10:54;;;;;;;3.00;1.50;;;11.40;37.50;;;;;;10428304;28;20229;-77
2023/01/12 21:16:01;;;;;;;1.93;1.57;;;11.30;37.60;;;;;;10423364;28;20240;-76
2023/01/12 21:21:05;;;;;;;2.07;1.30;;;11.30;37.50;;;;;;10428261;28;20236;-76
2023/01/12 21:26:09;;;;;;;2.17;1.60;;;11.20;37.60;;;;;;10423428;28;20234;-76
2023/01/12 21:31:14;;;;;;;4.37;1.90;;;11.20;37.50;;;;;;10428952;28;20229;-77
2023/01/12 21:36:18;;;;;;;2.53;1.83;;;11.10;37.50;;;;;;10430090;28;20228;-77
2023/01/12 21:41:23;;;;;;;2.63;1.30;;;11.10;37.60;;;;;;10427235;28;20728;-77
2023/01/12 21:46:30;;;;;;;1.93;1.10;;;11.10;37.70;;;;;;10435586;28;20236;-77
2023/01/12 21:51:33;;;;;;;2.37;1.40;;;11.10;37.60;;;;;;10427813;28;20236;-76
2023/01/12 21:56:36;;;;;;;1.10;1.00;;;11.10;37.70;;;;;;10437681;28;20233;-76
2023/01/12 22:01:41;;;;;;;1.27;1.10;;;11.00;37.80;;;;;;10427851;28;20226;-76
2023/01/12 22:06:44;;;;;;;1.83;1.10;;;11.10;37.90;;;;;;10435118;28;20693;-76
2023/01/12 22:11:47;;;;;;;1.93;1.10;;;11.10;37.90;;;;;;10431791;28;20225;-74
2023/01/12 22:16:51;;;;;;;1.43;1.00;;;11.10;37.90;;;;;;10434808;28;20225;-75
2023/01/12 22:21:55;;;;;;;2.90;1.40;;;11.10;37.70;;;;;;10435452;28;20242;-74
2023/01/12 22:26:58;;;;;;;1.50;1.40;;;11.10;37.80;;;;;;10434847;28;20240;-75
2023/01/12 22:32:02;;;;;;;1.30;1.20;;;11.10;37.80;;;;;;10437027;28;20226;-75
2023/01/12 22:37:05;;;;;;;1.57;1.30;;;11.10;37.80;;;;;;10433891;28;20221;-74
2023/01/12 22:42:09;;;;;;;1.87;1.37;;;11.10;37.70;;;;;;10427267;28;20221;-75
2023/01/12 22:47:13;;;;;;;2.47;1.20;;;11.10;37.80;;;;;;10421272;28;20275;-75
2023/01/12 22:52:16;;;;;;;1.23;1.13;;;11.10;37.60;;;;;;10429523;28;20239;-75
2023/01/12 22:57:20;;;;;;;1.60;1.20;;;11.10;37.80;;;;;;10441184;28;20241;-74
2023/01/12 23:07:45;;;;;;;1.70;1.17;;;11.10;37.90;;;;;;10434087;28;20256;-75
2023/01/12 23:18:08;;;;;;;1.10;1.00;;;11.20;38.00;;;;;;10431081;28;20217;-74
2023/01/12 23:23:14;;;;;;;1.63;1.00;;;11.20;37.90;;;;;;10438373;28;20244;-75
2023/01/12 23:28:17;;;;;;;1.23;1.13;;;11.20;37.90;;;;;;10433050;28;20244;-74
2023/01/12 23:33:21;;;;;;;1.30;1.00;;;11.20;38.00;;;;;;10441117;28;20288;-75
2023/01/12 23:38:24;;;;;;;0.87;0.80;;;11.20;37.70;;;;;;10434499;28;20233;-74
2023/01/12 23:43:28;;;;;;;1.10;0.90;;;11.20;37.90;;;;;;10424058;28;20635;-75
2023/01/12 23:48:32;;;;;;;0.97;0.87;;;11.20;37.80;;;;;;10428447;28;20232;-74
2023/01/12 23:53:35;;;;;;;1.47;1.00;;;11.20;37.70;;;;;;10434708;28;20237;-74
2023/01/12 23:58:39;;;;;;;1.20;0.90;;;11.20;37.90;;;;;;10436292;28;20225;-74
